sensor_id;sensor_type;location;lat;lon;timestamp;temperature;humidity
77052;SHT30;65980;44.898;8.602;2023-03-23T00:02:57;12.65;72.10
77052;SHT30;65980;44.898;8.602;2023-03-23T00:06:03;12.72;71.72
77052;SHT30;65980;44.898;8.602;2023-03-23T00:09:11;12.87;71.05
77052;SHT30;65980;44.898;8.602;2023-03-23T00:12:17;12.84;71.04
77052;SHT30;65980;44.898;8.602;2023-03-23T00:15:22;12.67;71.43
77052;SHT30;65980;44.898;8.602;2023-03-23T00:18:29;12.79;71.15
77052;SHT30;65980;44.898;8.602;2023-03-23T00:21:34;12.77;70.96
77052;SHT30;65980;44.898;8.602;2023-03-23T00:24:37;12.69;71.25
77052;SHT30;65980;44.898;8.602;2023-03-23T00:27:42;12.94;70.21
77052;SHT30;65980;44.898;8.602;2023-03-23T00:30:47;12.66;71.30
77052;SHT30;65980;44.898;8.602;2023-03-23T00:33:52;12.46;72.43
77052;SHT30;65980;44.898;8.602;2023-03-23T00:36:58;12.34;72.49
77052;SHT30;65980;44.898;8.602;2023-03-23T00:40:02;12.13;72.86
77052;SHT30;65980;44.898;8.602;2023-03-23T00:43:10;12.24;72.94
77052;SHT30;65980;44.898;8.602;2023-03-23T00:46:16;12.32;72.34
77052;SHT30;65980;44.898;8.602;2023-03-23T00:49:21;12.50;72.03
77052;SHT30;65980;44.898;8.602;2023-03-23T00:52:29;12.38;72.35
77052;SHT30;65980;44.898;8.602;2023-03-23T00:55:34;12.42;72.71
77052;SHT30;65980;44.898;8.602;2023-03-23T00:58:39;12.52;72.00
77052;SHT30;65980;44.898;8.602;2023-03-23T01:01:44;12.53;71.73
77052;SHT30;65980;44.898;8.602;2023-03-23T01:04:47;12.37;72.10
77052;SHT30;65980;44.898;8.602;2023-03-23T01:07:55;12.52;71.89
77052;SHT30;65980;44.898;8.602;2023-03-23T01:11:04;12.55;71.67
77052;SHT30;65980;44.898;8.602;2023-03-23T01:14:09;12.28;72.33
77052;SHT30;65980;44.898;8.602;2023-03-23T01:17:13;12.29;72.37
77052;SHT30;65980;44.898;8.602;2023-03-23T01:20:17;12.39;71.94
77052;SHT30;65980;44.898;8.602;2023-03-23T01:23:22;12.00;72.82
77052;SHT30;65980;44.898;8.602;2023-03-23T01:26:28;12.10;72.83
77052;SHT30;65980;44.898;8.602;2023-03-23T01:29:35;11.80;73.80
77052;SHT30;65980;44.898;8.602;2023-03-23T01:32:40;12.01;72.95
77052;SHT30;65980;44.898;8.602;2023-03-23T01:35:43;12.07;72.91
77052;SHT30;65980;44.898;8.602;2023-03-23T01:38:48;12.10;73.10
77052;SHT30;65980;44.898;8.602;2023-03-23T01:41:53;12.17;72.94
77052;SHT30;65980;44.898;8.602;2023-03-23T01:48:28;12.34;71.84
77052;SHT30;65980;44.898;8.602;2023-03-23T01:51:35;12.46;71.30
77052;SHT30;65980;44.898;8.602;2023-03-23T01:54:40;12.14;72.76
77052;SHT30;65980;44.898;8.602;2023-03-23T01:57:45;12.05;73.15
77052;SHT30;65980;44.898;8.602;2023-03-23T02:00:52;12.13;72.66
77052;SHT30;65980;44.898;8.602;2023-03-23T02:03:58;12.01;73.13
77052;SHT30;65980;44.898;8.602;2023-03-23T02:07:03;12.16;72.33
77052;SHT30;65980;44.898;8.602;2023-03-23T02:10:08;11.90;73.18
77052;SHT30;65980;44.898;8.602;2023-03-23T02:13:12;12.18;72.42
77052;SHT30;65980;44.898;8.602;2023-03-23T02:16:33;12.00;72.89
77052;SHT30;65980;44.898;8.602;2023-03-23T02:36:20;12.16;73.03
77052;SHT30;65980;44.898;8.602;2023-03-23T02:39:40;12.16;72.69
77052;SHT30;65980;44.898;8.602;2023-03-23T02:42:46;12.21;72.32
77052;SHT30;65980;44.898;8.602;2023-03-23T02:45:53;11.98;73.22
77052;SHT30;65980;44.898;8.602;2023-03-23T02:48:57;12.14;72.60
77052;SHT30;65980;44.898;8.602;2023-03-23T02:52:04;12.14;72.89
77052;SHT30;65980;44.898;8.602;2023-03-23T02:55:11;12.22;72.34
77052;SHT30;65980;44.898;8.602;2023-03-23T02:58:18;12.29;72.37
77052;SHT30;65980;44.898;8.602;2023-03-23T03:04:31;11.80;72.90
77052;SHT30;65980;44.898;8.602;2023-03-23T03:11:06;12.11;72.44
77052;SHT30;65980;44.898;8.602;2023-03-23T03:14:13;12.07;72.30
77052;SHT30;65980;44.898;8.602;2023-03-23T03:17:24;12.00;72.76
77052;SHT30;65980;44.898;8.602;2023-03-23T03:20:29;11.72;74.28
77052;SHT30;65980;44.898;8.602;2023-03-23T03:23:34;11.72;73.91
77052;SHT30;65980;44.898;8.602;2023-03-23T03:26:41;11.36;75.25
77052;SHT30;65980;44.898;8.602;2023-03-23T03:30:01;11.48;75.23
77052;SHT30;65980;44.898;8.602;2023-03-23T03:33:07;11.39;75.43
77052;SHT30;65980;44.898;8.602;2023-03-23T03:36:16;11.61;74.43
77052;SHT30;65980;44.898;8.602;2023-03-23T03:39:21;11.67;74.46
77052;SHT30;65980;44.898;8.602;2023-03-23T03:42:26;11.54;74.28
77052;SHT30;65980;44.898;8.602;2023-03-23T03:45:34;11.40;75.18
77052;SHT30;65980;44.898;8.602;2023-03-23T03:48:37;11.67;74.21
77052;SHT30;65980;44.898;8.602;2023-03-23T03:51:41;11.45;74.95
77052;SHT30;65980;44.898;8.602;2023-03-23T03:54:51;11.25;75.73
77052;SHT30;65980;44.898;8.602;2023-03-23T03:57:54;11.12;76.44
77052;SHT30;65980;44.898;8.602;2023-03-23T04:01:20;11.42;74.88
77052;SHT30;65980;44.898;8.602;2023-03-23T04:04:26;11.38;74.90
77052;SHT30;65980;44.898;8.602;2023-03-23T04:07:31;11.56;74.06
77052;SHT30;65980;44.898;8.602;2023-03-23T04:10:35;11.48;74.33
77052;SHT30;65980;44.898;8.602;2023-03-23T04:13:41;11.27;75.33
77052;SHT30;65980;44.898;8.602;2023-03-23T04:17:07;11.39;74.90
77052;SHT30;65980;44.898;8.602;2023-03-23T04:20:14;11.34;75.35
77052;SHT30;65980;44.898;8.602;2023-03-23T04:23:25;11.38;74.44
77052;SHT30;65980;44.898;8.602;2023-03-23T04:26:30;11.29;74.52
77052;SHT30;65980;44.898;8.602;2023-03-23T04:29:39;11.45;73.02
77052;SHT30;65980;44.898;8.602;2023-03-23T04:33:16;10.69;75.47
77052;SHT30;65980;44.898;8.602;2023-03-23T04:36:24;10.22;78.74
77052;SHT30;65980;44.898;8.602;2023-03-23T04:39:36;10.46;78.26
77052;SHT30;65980;44.898;8.602;2023-03-23T04:42:43;10.84;75.86
77052;SHT30;65980;44.898;8.602;2023-03-23T04:46:19;10.81;76.42
77052;SHT30;65980;44.898;8.602;2023-03-23T04:49:24;11.00;75.63
77052;SHT30;65980;44.898;8.602;2023-03-23T04:52:36;11.14;75.59
77052;SHT30;65980;44.898;8.602;2023-03-23T04:55:41;10.81;76.80
77052;SHT30;65980;44.898;8.602;2023-03-23T04:58:49;10.76;77.20
77052;SHT30;65980;44.898;8.602;2023-03-23T05:01:54;10.94;76.47
77052;SHT30;65980;44.898;8.602;2023-03-23T05:05:01;11.10;75.91
77052;SHT30;65980;44.898;8.602;2023-03-23T05:08:07;11.08;75.85
77052;SHT30;65980;44.898;8.602;2023-03-23T05:11:16;11.31;75.03
77052;SHT30;65980;44.898;8.602;2023-03-23T05:14:22;11.39;74.75
77052;SHT30;65980;44.898;8.602;2023-03-23T05:17:38;11.01;75.89
77052;SHT30;65980;44.898;8.602;2023-03-23T05:20:50;11.17;75.19
77052;SHT30;65980;44.898;8.602;2023-03-23T05:23:57;11.15;74.66
77052;SHT30;65980;44.898;8.602;2023-03-23T05:27:05;11.20;74.41
77052;SHT30;65980;44.898;8.602;2023-03-23T05:30:13;11.07;74.22
77052;SHT30;65980;44.898;8.602;2023-03-23T05:33:21;10.96;74.49
77052;SHT30;65980;44.898;8.602;2023-03-23T05:36:36;10.92;75.00
77052;SHT30;65980;44.898;8.602;2023-03-23T05:40:04;10.75;75.13
77052;SHT30;65980;44.898;8.602;2023-03-23T05:43:11;10.55;76.86
77052;SHT30;65980;44.898;8.602;2023-03-23T05:46:34;10.76;75.75
77052;SHT30;65980;44.898;8.602;2023-03-23T05:49:39;10.96;75.29
77052;SHT30;65980;44.898;8.602;2023-03-23T05:52:46;11.17;74.64
77052;SHT30;65980;44.898;8.602;2023-03-23T05:55:57;11.21;74.81
77052;SHT30;65980;44.898;8.602;2023-03-23T05:59:14;11.31;75.29
77052;SHT30;65980;44.898;8.602;2023-03-23T06:02:21;11.22;75.37
77052;SHT30;65980;44.898;8.602;2023-03-23T06:05:28;11.35;74.47
77052;SHT30;65980;44.898;8.602;2023-03-23T06:08:33;11.39;74.39
77052;SHT30;65980;44.898;8.602;2023-03-23T06:11:37;11.38;74.44
77052;SHT30;65980;44.898;8.602;2023-03-23T06:15:21;11.67;73.55
77052;SHT30;65980;44.898;8.602;2023-03-23T06:18:37;11.83;73.19
77052;SHT30;65980;44.898;8.602;2023-03-23T06:22:04;11.76;73.37
77052;SHT30;65980;44.898;8.602;2023-03-23T06:25:30;11.63;74.40
77052;SHT30;65980;44.898;8.602;2023-03-23T06:28:36;11.61;74.38
77052;SHT30;65980;44.898;8.602;2023-03-23T06:31:41;11.63;74.71
77052;SHT30;65980;44.898;8.602;2023-03-23T06:34:46;11.73;73.50
77052;SHT30;65980;44.898;8.602;2023-03-23T06:37:57;11.83;72.96
77052;SHT30;65980;44.898;8.602;2023-03-23T06:41:16;12.03;72.26
77052;SHT30;65980;44.898;8.602;2023-03-23T06:44:20;12.00;71.92
77052;SHT30;65980;44.898;8.602;2023-03-23T06:47:25;11.89;72.81
77052;SHT30;65980;44.898;8.602;2023-03-23T06:50:30;11.79;73.96
77052;SHT30;65980;44.898;8.602;2023-03-23T06:53:40;12.11;73.11
77052;SHT30;65980;44.898;8.602;2023-03-23T06:56:53;12.21;72.73
77052;SHT30;65980;44.898;8.602;2023-03-23T07:00:05;12.46;71.84
77052;SHT30;65980;44.898;8.602;2023-03-23T07:03:11;12.63;71.99
77052;SHT30;65980;44.898;8.602;2023-03-23T07:06:16;12.72;71.58
77052;SHT30;65980;44.898;8.602;2023-03-23T07:09:26;12.70;72.27
77052;SHT30;65980;44.898;8.602;2023-03-23T07:12:30;13.06;71.11
77052;SHT30;65980;44.898;8.602;2023-03-23T07:15:34;13.27;71.14
77052;SHT30;65980;44.898;8.602;2023-03-23T07:18:38;12.73;73.42
77052;SHT30;65980;44.898;8.602;2023-03-23T07:21:43;12.65;74.50
77052;SHT30;65980;44.898;8.602;2023-03-23T07:24:48;12.57;74.34
77052;SHT30;65980;44.898;8.602;2023-03-23T07:27:57;12.83;74.16
77052;SHT30;65980;44.898;8.602;2023-03-23T07:31:29;12.69;74.37
77052;SHT30;65980;44.898;8.602;2023-03-23T07:34:40;12.48;74.91
77052;SHT30;65980;44.898;8.602;2023-03-23T07:38:07;12.70;75.01
77052;SHT30;65980;44.898;8.602;2023-03-23T07:41:13;13.04;73.79
77052;SHT30;65980;44.898;8.602;2023-03-23T07:44:22;13.41;72.71
77052;SHT30;65980;44.898;8.602;2023-03-23T07:47:28;13.90;71.05
77052;SHT30;65980;44.898;8.602;2023-03-23T07:50:35;13.39;72.89
77052;SHT30;65980;44.898;8.602;2023-03-23T07:53:44;13.31;73.10
77052;SHT30;65980;44.898;8.602;2023-03-23T08:01:31;13.87;71.54
77052;SHT30;65980;44.898;8.602;2023-03-23T08:08:52;13.44;73.94
77052;SHT30;65980;44.898;8.602;2023-03-23T08:12:29;13.42;73.98
77052;SHT30;65980;44.898;8.602;2023-03-23T08:15:52;13.65;73.49
77052;SHT30;65980;44.898;8.602;2023-03-23T08:19:19;13.73;72.81
77052;SHT30;65980;44.898;8.602;2023-03-23T08:22:43;13.83;73.81
77052;SHT30;65980;44.898;8.602;2023-03-23T08:26:15;14.34;71.80
77052;SHT30;65980;44.898;8.602;2023-03-23T08:29:45;14.76;70.36
77052;SHT30;65980;44.898;8.602;2023-03-23T08:36:58;15.31;68.55
77052;SHT30;65980;44.898;8.602;2023-03-23T08:40:06;15.54;67.67
77052;SHT30;65980;44.898;8.602;2023-03-23T08:43:30;15.67;67.61
77052;SHT30;65980;44.898;8.602;2023-03-23T08:46:58;15.67;67.71
77052;SHT30;65980;44.898;8.602;2023-03-23T08:50:25;15.94;67.27
77052;SHT30;65980;44.898;8.602;2023-03-23T08:53:39;16.20;64.49
77052;SHT30;65980;44.898;8.602;2023-03-23T08:57:20;16.22;63.71
77052;SHT30;65980;44.898;8.602;2023-03-23T09:00:48;16.41;62.62
77052;SHT30;65980;44.898;8.602;2023-03-23T09:04:29;16.38;62.98
77052;SHT30;65980;44.898;8.602;2023-03-23T09:08:04;17.23;61.04
77052;SHT30;65980;44.898;8.602;2023-03-23T09:15:46;17.91;59.19
77052;SHT30;65980;44.898;8.602;2023-03-23T09:19:14;19.02;56.82
77052;SHT30;65980;44.898;8.602;2023-03-23T09:22:19;19.75;53.78
77052;SHT30;65980;44.898;8.602;2023-03-23T09:29:12;21.32;50.34
77052;SHT30;65980;44.898;8.602;2023-03-23T09:32:16;21.65;49.18
77052;SHT30;65980;44.898;8.602;2023-03-23T09:35:23;22.75;47.64
77052;SHT30;65980;44.898;8.602;2023-03-23T09:38:28;21.82;49.74
77052;SHT30;65980;44.898;8.602;2023-03-23T10:41:57;20.76;51.00
77052;SHT30;65980;44.898;8.602;2023-03-23T10:45:16;20.78;51.57
77052;SHT30;65980;44.898;8.602;2023-03-23T10:55:48;19.54;53.77
77052;SHT30;65980;44.898;8.602;2023-03-23T10:58:52;20.03;52.47
77052;SHT30;65980;44.898;8.602;2023-03-23T11:01:57;20.00;52.71
77052;SHT30;65980;44.898;8.602;2023-03-23T11:05:05;20.01;51.85
77052;SHT30;65980;44.898;8.602;2023-03-23T11:08:14;20.32;52.19
77052;SHT30;65980;44.898;8.602;2023-03-23T11:11:26;20.68;50.09
77052;SHT30;65980;44.898;8.602;2023-03-23T11:14:32;20.25;51.89
77052;SHT30;65980;44.898;8.602;2023-03-23T11:17:38;21.00;51.62
77052;SHT30;65980;44.898;8.602;2023-03-23T11:20:48;20.58;51.67
77052;SHT30;65980;44.898;8.602;2023-03-23T11:23:59;20.83;50.83
77052;SHT30;65980;44.898;8.602;2023-03-23T11:27:03;20.61;51.16
77052;SHT30;65980;44.898;8.602;2023-03-23T11:30:22;21.04;49.91
77052;SHT30;65980;44.898;8.602;2023-03-23T11:33:47;20.99;50.84
77052;SHT30;65980;44.898;8.602;2023-03-23T11:37:05;21.11;49.36
77052;SHT30;65980;44.898;8.602;2023-03-23T11:40:18;21.28;49.29
77052;SHT30;65980;44.898;8.602;2023-03-23T11:43:43;21.24;49.88
77052;SHT30;65980;44.898;8.602;2023-03-23T12:20:24;20.40;51.13
77052;SHT30;65980;44.898;8.602;2023-03-23T12:43:26;20.49;51.44
77052;SHT30;65980;44.898;8.602;2023-03-23T12:49:57;20.75;50.54
77052;SHT30;65980;44.898;8.602;2023-03-23T12:56:36;19.82;52.41
77052;SHT30;65980;44.898;8.602;2023-03-23T12:59:57;19.83;53.08
77052;SHT30;65980;44.898;8.602;2023-03-23T13:13:56;20.17;51.79
77052;SHT30;65980;44.898;8.602;2023-03-23T13:23:36;20.03;52.05
77052;SHT30;65980;44.898;8.602;2023-03-23T13:28:12;19.97;51.16
77052;SHT30;65980;44.898;8.602;2023-03-23T13:31:43;19.92;51.80
77052;SHT30;65980;44.898;8.602;2023-03-23T13:35:05;19.76;51.09
77052;SHT30;65980;44.898;8.602;2023-03-23T13:38:34;19.78;50.70
77052;SHT30;65980;44.898;8.602;2023-03-23T13:45:47;20.07;49.71
77052;SHT30;65980;44.898;8.602;2023-03-23T13:56:04;19.63;50.84
77052;SHT30;65980;44.898;8.602;2023-03-23T14:02:34;19.80;49.99
77052;SHT30;65980;44.898;8.602;2023-03-23T14:08:49;19.87;51.12
77052;SHT30;65980;44.898;8.602;2023-03-23T14:11:58;19.90;49.74
77052;SHT30;65980;44.898;8.602;2023-03-23T14:15:03;19.51;51.13
77052;SHT30;65980;44.898;8.602;2023-03-23T14:18:14;19.44;50.75
77052;SHT30;65980;44.898;8.602;2023-03-23T14:21:40;19.35;51.61
77052;SHT30;65980;44.898;8.602;2023-03-23T14:24:44;18.92;53.08
77052;SHT30;65980;44.898;8.602;2023-03-23T14:27:50;19.39;52.63
77052;SHT30;65980;44.898;8.602;2023-03-23T14:30:55;19.10;52.83
77052;SHT30;65980;44.898;8.602;2023-03-23T14:34:02;19.30;52.31
77052;SHT30;65980;44.898;8.602;2023-03-23T14:37:09;19.14;51.86
77052;SHT30;65980;44.898;8.602;2023-03-23T14:40:16;18.85;52.99
77052;SHT30;65980;44.898;8.602;2023-03-23T14:43:21;18.89;50.74
77052;SHT30;65980;44.898;8.602;2023-03-23T14:46:26;18.80;50.49
77052;SHT30;65980;44.898;8.602;2023-03-23T14:49:35;18.66;50.92
77052;SHT30;65980;44.898;8.602;2023-03-23T14:52:42;18.58;51.02
77052;SHT30;65980;44.898;8.602;2023-03-23T14:55:47;18.55;51.32
77052;SHT30;65980;44.898;8.602;2023-03-23T14:59:00;18.62;51.90
77052;SHT30;65980;44.898;8.602;2023-03-23T15:02:06;18.58;51.39
77052;SHT30;65980;44.898;8.602;2023-03-23T15:08:27;18.73;50.57
77052;SHT30;65980;44.898;8.602;2023-03-23T15:11:35;18.85;50.54
77052;SHT30;65980;44.898;8.602;2023-03-23T15:14:44;18.72;50.24
77052;SHT30;65980;44.898;8.602;2023-03-23T15:17:48;18.70;50.42
77052;SHT30;65980;44.898;8.602;2023-03-23T15:20:52;18.38;51.36
77052;SHT30;65980;44.898;8.602;2023-03-23T15:23:57;18.37;51.33
77052;SHT30;65980;44.898;8.602;2023-03-23T15:27:49;18.44;52.37
77052;SHT30;65980;44.898;8.602;2023-03-23T15:30:28;18.44;52.28
77052;SHT30;65980;44.898;8.602;2023-03-23T15:33:33;18.48;51.48
77052;SHT30;65980;44.898;8.602;2023-03-23T15:36:45;18.48;51.37
77052;SHT30;65980;44.898;8.602;2023-03-23T15:39:49;18.13;52.11
77052;SHT30;65980;44.898;8.602;2023-03-23T15:43:08;18.25;52.14
77052;SHT30;65980;44.898;8.602;2023-03-23T15:46:27;18.07;52.57
77052;SHT30;65980;44.898;8.602;2023-03-23T15:49:32;17.99;53.14
77052;SHT30;65980;44.898;8.602;2023-03-23T15:52:36;17.93;53.67
77052;SHT30;65980;44.898;8.602;2023-03-23T15:55:41;18.00;53.70
77052;SHT30;65980;44.898;8.602;2023-03-23T15:58:47;17.70;54.05
77052;SHT30;65980;44.898;8.602;2023-03-23T16:01:50;17.82;53.75
77052;SHT30;65980;44.898;8.602;2023-03-23T16:04:55;17.69;53.36
77052;SHT30;65980;44.898;8.602;2023-03-23T16:07:59;17.44;53.83
77052;SHT30;65980;44.898;8.602;2023-03-23T16:11:04;17.48;53.47
77052;SHT30;65980;44.898;8.602;2023-03-23T16:14:08;17.31;54.06
77052;SHT30;65980;44.898;8.602;2023-03-23T16:17:13;16.94;55.29
77052;SHT30;65980;44.898;8.602;2023-03-23T16:20:23;17.21;55.00
77052;SHT30;65980;44.898;8.602;2023-03-23T16:23:27;17.23;54.51
77052;SHT30;65980;44.898;8.602;2023-03-23T16:26:31;17.14;54.50
77052;SHT30;65980;44.898;8.602;2023-03-23T16:29:39;17.13;54.07
77052;SHT30;65980;44.898;8.602;2023-03-23T16:32:44;17.06;54.43
77052;SHT30;65980;44.898;8.602;2023-03-23T16:35:49;17.08;54.85
77052;SHT30;65980;44.898;8.602;2023-03-23T16:38:54;17.03;55.57
77052;SHT30;65980;44.898;8.602;2023-03-23T16:41:57;16.84;56.04
77052;SHT30;65980;44.898;8.602;2023-03-23T16:45:01;16.73;56.94
77052;SHT30;65980;44.898;8.602;2023-03-23T16:48:06;16.70;57.52
77052;SHT30;65980;44.898;8.602;2023-03-23T16:51:11;16.70;57.99
77052;SHT30;65980;44.898;8.602;2023-03-23T16:54:16;16.53;59.20
77052;SHT30;65980;44.898;8.602;2023-03-23T16:57:19;16.14;60.44
77052;SHT30;65980;44.898;8.602;2023-03-23T17:00:23;16.40;60.36
77052;SHT30;65980;44.898;8.602;2023-03-23T17:03:29;16.01;61.47
77052;SHT30;65980;44.898;8.602;2023-03-23T17:06:34;16.29;61.00
77052;SHT30;65980;44.898;8.602;2023-03-23T17:09:38;16.08;61.89
77052;SHT30;65980;44.898;8.602;2023-03-23T17:12:42;15.93;62.20
77052;SHT30;65980;44.898;8.602;2023-03-23T17:15:46;15.78;62.75
77052;SHT30;65980;44.898;8.602;2023-03-23T17:18:57;15.82;62.88
77052;SHT30;65980;44.898;8.602;2023-03-23T17:22:01;15.62;63.64
77052;SHT30;65980;44.898;8.602;2023-03-23T17:25:07;15.69;63.62
77052;SHT30;65980;44.898;8.602;2023-03-23T17:28:13;15.21;65.87
77052;SHT30;65980;44.898;8.602;2023-03-23T17:31:18;15.44;64.74
77052;SHT30;65980;44.898;8.602;2023-03-23T17:34:22;15.23;65.61
77052;SHT30;65980;44.898;8.602;2023-03-23T17:37:25;15.20;65.76
77052;SHT30;65980;44.898;8.602;2023-03-23T17:40:29;15.10;66.19
77052;SHT30;65980;44.898;8.602;2023-03-23T17:43:33;14.94;66.73
77052;SHT30;65980;44.898;8.602;2023-03-23T17:46:39;14.86;67.29
77052;SHT30;65980;44.898;8.602;2023-03-23T17:49:44;14.83;67.34
77052;SHT30;65980;44.898;8.602;2023-03-23T17:52:49;14.77;67.75
77052;SHT30;65980;44.898;8.602;2023-03-23T17:55:54;14.80;67.69
77052;SHT30;65980;44.898;8.602;2023-03-23T17:58:58;14.65;68.41
77052;SHT30;65980;44.898;8.602;2023-03-23T18:02:02;14.68;68.30
77052;SHT30;65980;44.898;8.602;2023-03-23T18:08:36;14.42;69.38
77052;SHT30;65980;44.898;8.602;2023-03-23T18:11:40;14.34;69.48
77052;SHT30;65980;44.898;8.602;2023-03-23T18:14:44;14.58;68.98
77052;SHT30;65980;44.898;8.602;2023-03-23T18:17:48;14.22;70.28
77052;SHT30;65980;44.898;8.602;2023-03-23T18:21:00;14.41;69.80
77052;SHT30;65980;44.898;8.602;2023-03-23T18:24:05;14.35;70.24
77052;SHT30;65980;44.898;8.602;2023-03-23T18:27:09;14.41;69.86
77052;SHT30;65980;44.898;8.602;2023-03-23T18:30:16;14.32;70.65
77052;SHT30;65980;44.898;8.602;2023-03-23T18:33:21;14.31;70.75
77052;SHT30;65980;44.898;8.602;2023-03-23T18:36:27;14.31;70.90
77052;SHT30;65980;44.898;8.602;2023-03-23T18:39:32;14.17;71.75
77052;SHT30;65980;44.898;8.602;2023-03-23T18:42:40;14.22;71.70
77052;SHT30;65980;44.898;8.602;2023-03-23T18:45:52;14.38;71.22
77052;SHT30;65980;44.898;8.602;2023-03-23T18:48:56;14.27;72.07
77052;SHT30;65980;44.898;8.602;2023-03-23T18:52:04;14.25;71.93
77052;SHT30;65980;44.898;8.602;2023-03-23T18:55:08;14.41;71.72
77052;SHT30;65980;44.898;8.602;2023-03-23T18:58:13;14.44;71.60
77052;SHT30;65980;44.898;8.602;2023-03-23T19:01:17;14.32;72.10
77052;SHT30;65980;44.898;8.602;2023-03-23T19:04:21;14.31;72.24
77052;SHT30;65980;44.898;8.602;2023-03-23T19:07:25;14.24;72.44
77052;SHT30;65980;44.898;8.602;2023-03-23T19:10:31;14.27;72.00
77052;SHT30;65980;44.898;8.602;2023-03-23T19:13:39;14.10;72.85
77052;SHT30;65980;44.898;8.602;2023-03-23T19:16:44;14.07;73.10
77052;SHT30;65980;44.898;8.602;2023-03-23T19:19:49;14.11;72.74
77052;SHT30;65980;44.898;8.602;2023-03-23T19:22:52;13.93;73.82
77052;SHT30;65980;44.898;8.602;2023-03-23T19:25:57;13.97;73.41
77052;SHT30;65980;44.898;8.602;2023-03-23T19:29:02;14.13;72.73
77052;SHT30;65980;44.898;8.602;2023-03-23T19:32:07;13.96;73.43
77052;SHT30;65980;44.898;8.602;2023-03-23T19:35:13;14.17;72.67
77052;SHT30;65980;44.898;8.602;2023-03-23T19:38:20;14.03;73.21
77052;SHT30;65980;44.898;8.602;2023-03-23T19:41:24;13.99;73.12
77052;SHT30;65980;44.898;8.602;2023-03-23T19:44:29;13.99;73.22
77052;SHT30;65980;44.898;8.602;2023-03-23T19:47:34;14.09;72.88
77052;SHT30;65980;44.898;8.602;2023-03-23T19:50:38;14.21;72.41
77052;SHT30;65980;44.898;8.602;2023-03-23T19:53:42;14.04;72.87
77052;SHT30;65980;44.898;8.602;2023-03-23T19:56:46;14.10;72.79
77052;SHT30;65980;44.898;8.602;2023-03-23T19:59:50;13.89;73.29
77052;SHT30;65980;44.898;8.602;2023-03-23T20:02:54;13.97;72.91
77052;SHT30;65980;44.898;8.602;2023-03-23T20:06:04;13.91;73.20
77052;SHT30;65980;44.898;8.602;2023-03-23T20:09:09;13.99;73.22
77052;SHT30;65980;44.898;8.602;2023-03-23T20:12:14;14.18;72.46
77052;SHT30;65980;44.898;8.602;2023-03-23T20:15:18;13.96;73.18
77052;SHT30;65980;44.898;8.602;2023-03-23T20:18:23;14.07;72.99
77052;SHT30;65980;44.898;8.602;2023-03-23T20:21:28;14.01;73.06
77052;SHT30;65980;44.898;8.602;2023-03-23T20:24:32;14.10;72.81
77052;SHT30;65980;44.898;8.602;2023-03-23T20:27:36;14.03;73.01
77052;SHT30;65980;44.898;8.602;2023-03-23T20:30:40;14.01;73.19
77052;SHT30;65980;44.898;8.602;2023-03-23T20:33:44;13.89;73.68
77052;SHT30;65980;44.898;8.602;2023-03-23T20:36:49;13.91;73.57
77052;SHT30;65980;44.898;8.602;2023-03-23T20:39:53;13.59;74.63
77052;SHT30;65980;44.898;8.602;2023-03-23T20:42:57;13.89;73.67
77052;SHT30;65980;44.898;8.602;2023-03-23T20:46:05;13.89;73.81
77052;SHT30;65980;44.898;8.602;2023-03-23T20:49:09;13.82;73.97
77052;SHT30;65980;44.898;8.602;2023-03-23T20:52:14;13.79;73.81
77052;SHT30;65980;44.898;8.602;2023-03-23T20:55:19;13.80;73.89
77052;SHT30;65980;44.898;8.602;2023-03-23T20:58:24;13.59;74.82
77052;SHT30;65980;44.898;8.602;2023-03-23T21:01:28;13.67;74.55
77052;SHT30;65980;44.898;8.602;2023-03-23T21:04:35;13.70;74.06
77052;SHT30;65980;44.898;8.602;2023-03-23T21:07:41;13.70;74.34
77052;SHT30;65980;44.898;8.602;2023-03-23T21:10:45;13.48;75.23
77052;SHT30;65980;44.898;8.602;2023-03-23T21:13:49;13.65;74.74
77052;SHT30;65980;44.898;8.602;2023-03-23T21:16:53;13.66;74.59
77052;SHT30;65980;44.898;8.602;2023-03-23T21:19:58;13.66;74.62
77052;SHT30;65980;44.898;8.602;2023-03-23T21:23:02;13.63;75.14
77052;SHT30;65980;44.898;8.602;2023-03-23T21:26:09;13.45;75.59
77052;SHT30;65980;44.898;8.602;2023-03-23T21:29:13;13.29;76.72
77052;SHT30;65980;44.898;8.602;2023-03-23T21:32:18;13.35;76.52
77052;SHT30;65980;44.898;8.602;2023-03-23T21:35:22;13.52;75.60
77052;SHT30;65980;44.898;8.602;2023-03-23T21:38:26;13.65;75.15
77052;SHT30;65980;44.898;8.602;2023-03-23T21:41:31;13.56;75.48
77052;SHT30;65980;44.898;8.602;2023-03-23T21:44:38;13.69;75.13
77052;SHT30;65980;44.898;8.602;2023-03-23T21:47:42;13.42;75.90
77052;SHT30;65980;44.898;8.602;2023-03-23T21:50:47;13.46;75.60
77052;SHT30;65980;44.898;8.602;2023-03-23T21:53:52;13.41;75.53
77052;SHT30;65980;44.898;8.602;2023-03-23T21:56:59;13.59;75.00
77052;SHT30;65980;44.898;8.602;2023-03-23T22:00:04;13.41;75.26
77052;SHT30;65980;44.898;8.602;2023-03-23T22:03:10;13.35;75.74
77052;SHT30;65980;44.898;8.602;2023-03-23T22:06:15;13.51;74.91
77052;SHT30;65980;44.898;8.602;2023-03-23T22:09:21;13.34;75.56
77052;SHT30;65980;44.898;8.602;2023-03-23T22:12:26;13.51;75.17
77052;SHT30;65980;44.898;8.602;2023-03-23T22:15:30;13.66;74.28
77052;SHT30;65980;44.898;8.602;2023-03-23T22:18:34;13.48;74.85
77052;SHT30;65980;44.898;8.602;2023-03-23T22:21:38;13.61;75.00
77052;SHT30;65980;44.898;8.602;2023-03-23T22:24:42;13.20;75.59
77052;SHT30;65980;44.898;8.602;2023-03-23T22:27:46;13.35;75.83
77052;SHT30;65980;44.898;8.602;2023-03-23T22:30:52;13.41;75.02
77052;SHT30;65980;44.898;8.602;2023-03-23T22:33:56;13.21;76.13
77052;SHT30;65980;44.898;8.602;2023-03-23T22:37:01;12.82;78.26
77052;SHT30;65980;44.898;8.602;2023-03-23T22:40:06;13.28;76.92
77052;SHT30;65980;44.898;8.602;2023-03-23T22:43:12;13.21;76.55
77052;SHT30;65980;44.898;8.602;2023-03-23T22:46:16;13.24;76.23
77052;SHT30;65980;44.898;8.602;2023-03-23T22:49:20;13.07;76.91
77052;SHT30;65980;44.898;8.602;2023-03-23T22:52:24;13.18;77.17
77052;SHT30;65980;44.898;8.602;2023-03-23T22:55:28;13.24;76.71
77052;SHT30;65980;44.898;8.602;2023-03-23T22:58:32;13.11;77.60
77052;SHT30;65980;44.898;8.602;2023-03-23T23:01:37;13.34;76.48
77052;SHT30;65980;44.898;8.602;2023-03-23T23:04:41;13.20;76.39
77052;SHT30;65980;44.898;8.602;2023-03-23T23:07:47;13.29;75.81
77052;SHT30;65980;44.898;8.602;2023-03-23T23:10:52;13.35;75.69
77052;SHT30;65980;44.898;8.602;2023-03-23T23:13:56;13.31;75.54
77052;SHT30;65980;44.898;8.602;2023-03-23T23:17:02;13.31;75.48
77052;SHT30;65980;44.898;8.602;2023-03-23T23:20:06;13.37;75.04
77052;SHT30;65980;44.898;8.602;2023-03-23T23:23:16;13.12;75.59
77052;SHT30;65980;44.898;8.602;2023-03-23T23:26:20;13.21;75.44
77052;SHT30;65980;44.898;8.602;2023-03-23T23:29:24;13.20;75.43